Time;durP1;ratioP1;P1;durP2;ratioP2;P2;SDS_P1;SDS_P2;PMS_P1;PMS_P2;Temp;Humidity;BMP_temperature;BMP_pressure;BME280_temperature;BME280_humidity;BME280_pressure;Samples;Min_cycle;Max_cycle;Signal;HPM_P1;HPM_P2
2024/03/29 01:43:47;;;;;;;4.93;1.10;;;;;;;4.51;100.00;98820.81;4960296;28;20437;-78
2024/03/29 01:46:15;;;;;;;4.85;1.00;;;;;;;4.43;100.00;98827.63;4976226;28;20416;-80
2024/03/29 01:48:42;;;;;;;3.97;1.00;;;;;;;4.46;100.00;98829.78;4990696;28;20439;-83
2024/03/29 01:51:13;;;;;;;3.07;1.13;;;;;;;4.39;100.00;98829.28;4972499;28;20495;-82
2024/03/29 01:53:41;;;;;;;5.03;1.20;;;;;;;4.34;100.00;98824.75;4886262;28;2311349;-82
2024/03/29 01:56:09;;;;;;;4.97;1.33;;;;;;;4.41;100.00;98830.59;4991279;28;20750;-82
2024/03/29 01:58:37;;;;;;;3.72;1.50;;;;;;;4.36;100.00;98827.97;4981210;28;20440;-82
2024/03/29 02:01:08;;;;;;;5.18;1.30;;;;;;;4.41;100.00;98837.91;4990814;28;20435;-82
2024/03/29 02:03:37;;;;;;;4.32;1.30;;;;;;;4.38;100.00;98825.78;4990768;28;20440;-81
2024/03/29 02:06:05;;;;;;;5.25;1.40;;;;;;;4.40;100.00;98830.91;4991132;28;20429;-82
2024/03/29 02:08:33;;;;;;;6.97;1.60;;;;;;;4.36;100.00;98836.03;4974157;28;20421;-82
2024/03/29 02:11:01;;;;;;;5.43;1.63;;;;;;;4.28;100.00;98841.25;4975355;28;20417;-82
2024/03/29 02:13:29;;;;;;;4.38;1.48;;;;;;;4.28;100.00;98841.25;4974253;28;20420;-82
2024/03/29 02:15:56;;;;;;;3.40;1.30;;;;;;;4.20;100.00;98851.53;4975098;28;20435;-82
2024/03/29 02:18:25;;;;;;;5.38;1.55;;;;;;;4.22;100.00;98849.34;4974537;28;20413;-82
2024/03/29 02:20:53;;;;;;;7.17;1.80;;;;;;;4.33;100.00;98850.06;4973966;28;20475;-81
2024/03/29 02:23:27;;;;;;;6.60;1.50;;;;;;;4.23;100.00;98845.59;4973675;28;20505;-82
2024/03/29 02:25:56;;;;;;;4.63;1.40;;;;;;;4.28;100.00;98846.63;4992057;28;20424;-82
2024/03/29 02:28:24;;;;;;;4.50;1.30;;;;;;;4.22;100.00;98856.66;4972822;28;20444;-82
2024/03/29 02:30:52;;;;;;;5.10;1.42;;;;;;;4.18;100.00;98851.00;4989789;28;20429;-82
2024/03/29 02:33:21;;;;;;;4.38;1.27;;;;;;;4.12;100.00;98854.06;4985571;28;20909;-82
2024/03/29 02:35:49;;;;;;;2.28;1.15;;;;;;;4.05;100.00;98855.16;4990572;28;20420;-82
2024/03/29 02:38:16;;;;;;;5.78;1.30;;;;;;;4.06;100.00;98854.09;4976547;28;20949;-82
2024/03/29 02:40:44;;;;;;;5.82;1.27;;;;;;;4.02;100.00;98863.81;4976978;28;20441;-82
2024/03/29 02:43:12;;;;;;;4.45;1.40;;;;;;;3.96;100.00;98862.22;4978262;28;20435;-82
2024/03/29 02:45:39;;;;;;;4.00;1.30;;;;;;;3.96;100.00;98864.13;4984645;28;20899;-82
2024/03/29 02:48:07;;;;;;;7.22;1.70;;;;;;;3.99;100.00;98856.31;4990702;28;20431;-82
2024/03/29 02:50:34;;;;;;;3.85;1.30;;;;;;;3.93;100.00;98860.09;4978295;28;20917;-81
2024/03/29 02:53:01;;;;;;;4.45;1.30;;;;;;;3.92;100.00;98858.47;4993874;28;20776;-81
2024/03/29 02:55:28;;;;;;;5.80;1.40;;;;;;;3.91;100.00;98864.97;4989361;28;20429;-82
2024/03/29 02:57:55;;;;;;;4.80;1.40;;;;;;;3.91;100.00;98867.66;4978831;28;20522;-81
2024/03/29 03:00:23;;;;;;;7.15;1.58;;;;;;;3.90;100.00;98874.13;4994353;28;20408;-82
2024/03/29 03:02:50;;;;;;;4.47;1.30;;;;;;;3.86;100.00;98873.88;4992386;28;20424;-82
2024/03/29 03:05:17;;;;;;;3.83;1.55;;;;;;;3.89;100.00;98870.63;4977242;28;20432;-82
2024/03/29 03:13:14;;;;;;;4.30;1.48;;;;;;;3.87;100.00;98862.03;4985318;28;20412;-82
2024/03/29 03:15:43;;;;;;;3.57;1.30;;;;;;;3.85;100.00;98864.22;4994593;28;20507;-82
2024/03/29 03:18:09;;;;;;;3.45;1.48;;;;;;;3.96;100.00;98861.44;4971198;28;20440;-84
2024/03/29 03:20:38;;;;;;;4.45;1.50;;;;;;;3.95;100.00;98857.13;4992535;28;20435;-82
2024/03/29 03:23:04;;;;;;;5.07;1.67;;;;;;;3.85;100.00;98840.00;4993021;28;20418;-82
2024/03/29 03:25:32;;;;;;;4.33;1.77;;;;;;;3.86;100.00;98848.84;4993951;28;20429;-82
2024/03/29 03:27:58;;;;;;;5.28;1.65;;;;;;;3.84;100.00;98842.94;4993794;28;20416;-82
2024/03/29 03:30:26;;;;;;;4.97;1.55;;;;;;;3.84;100.00;98841.06;4993439;28;20424;-82
2024/03/29 03:32:53;;;;;;;3.67;1.50;;;;;;;3.81;100.00;98833.56;4992102;28;20429;-82
2024/03/29 03:35:21;;;;;;;5.32;1.70;;;;;;;3.70;100.00;98834.69;4994740;28;20887;-82
2024/03/29 03:37:47;;;;;;;3.42;1.50;;;;;;;3.63;100.00;98843.06;4978033;28;20427;-82
2024/03/29 03:40:15;;;;;;;6.65;1.80;;;;;;;3.63;100.00;98836.91;4977794;28;20424;-82
2024/03/29 03:42:41;;;;;;;5.93;1.50;;;;;;;3.75;100.00;98848.13;4993654;28;20427;-82
2024/03/29 03:45:09;;;;;;;5.03;1.60;;;;;;;3.62;100.00;98849.56;4976569;28;20438;-82
2024/03/29 03:47:36;;;;;;;5.80;1.60;;;;;;;3.69;100.00;98855.41;4984211;28;20428;-82
2024/03/29 03:50:05;;;;;;;5.75;1.75;;;;;;;3.68;100.00;98850.31;4994114;28;21231;-81
2024/03/29 03:52:32;;;;;;;5.57;1.90;;;;;;;3.62;100.00;98852.25;4977166;28;20423;-82
2024/03/29 03:55:00;;;;;;;6.00;1.70;;;;;;;3.60;100.00;98856.28;4976572;28;20766;-82
2024/03/29 03:57:26;;;;;;;7.05;1.85;;;;;;;3.58;100.00;98854.69;4991634;28;20420;-82
2024/03/29 03:59:54;;;;;;;7.32;2.05;;;;;;;3.50;100.00;98852.56;4976978;28;20428;-82
2024/03/29 04:02:20;;;;;;;6.85;1.80;;;;;;;3.48;100.00;98862.81;4992212;28;20783;-82
2024/03/29 04:04:48;;;;;;;4.70;1.70;;;;;;;3.55;100.00;98874.06;4993799;28;20419;-82
2024/03/29 04:07:16;;;;;;;6.35;2.00;;;;;;;3.52;100.00;98871.13;4992923;28;20425;-82
2024/03/29 04:09:43;;;;;;;6.22;1.85;;;;;;;3.47;100.00;98861.19;4993111;28;20425;-81
2024/03/29 04:12:10;;;;;;;5.13;1.70;;;;;;;3.47;100.00;98874.66;4976641;28;20439;-82
2024/03/29 04:14:37;;;;;;;4.50;1.60;;;;;;;3.44;100.00;98883.28;4986847;28;20425;-82
2024/03/29 04:17:04;;;;;;;5.55;1.63;;;;;;;3.44;100.00;98875.22;4975935;28;21089;-82
2024/03/29 04:19:31;;;;;;;3.90;1.80;;;;;;;3.47;100.00;98874.66;4992896;28;20987;-82
2024/03/29 04:21:58;;;;;;;6.07;1.80;;;;;;;3.41;100.00;98870.38;4976243;28;20435;-83
2024/03/29 04:24:29;;;;;;;4.85;1.50;;;;;;;3.44;100.00;98861.75;4992539;28;20937;-82
2024/03/29 04:26:55;;;;;;;5.37;1.57;;;;;;;3.40;100.00;98855.34;4966869;28;21256;-82
2024/03/29 04:29:23;;;;;;;3.53;1.58;;;;;;;3.38;100.00;98861.00;4992439;28;20427;-82
2024/03/29 04:31:49;;;;;;;4.65;1.38;;;;;;;3.40;100.00;98850.75;4988964;28;21070;-82
2024/03/29 04:34:17;;;;;;;6.45;1.67;;;;;;;3.43;100.00;98853.97;4973267;28;20417;-82
2024/03/29 04:36:45;;;;;;;5.03;1.30;;;;;;;3.36;100.00;98851.59;4991676;28;20424;-82
2024/03/29 04:39:12;;;;;;;4.63;1.40;;;;;;;3.38;100.00;98858.31;4976638;28;20417;-82
2024/03/29 04:41:41;;;;;;;5.07;1.30;;;;;;;3.37;100.00;98847.78;4969713;28;20421;-82
2024/03/29 04:44:09;;;;;;;3.60;1.23;;;;;;;3.41;100.00;98838.09;4969077;28;20424;-82
2024/03/29 04:46:36;;;;;;;3.15;1.30;;;;;;;3.38;100.00;98835.97;4971733;28;20432;-82
2024/03/29 04:49:04;;;;;;;4.70;1.35;;;;;;;3.43;100.00;98843.22;4992562;28;20416;-82
2024/03/29 04:51:31;;;;;;;3.30;1.10;;;;;;;3.47;100.00;98852.34;4981719;28;21095;-82
2024/03/29 04:53:59;;;;;;;4.47;1.30;;;;;;;3.49;100.00;98848.28;4989821;28;20438;-82
2024/03/29 04:56:25;;;;;;;2.80;1.23;;;;;;;3.64;100.00;98838.50;4991271;28;20417;-82
2024/03/29 04:58:54;;;;;;;4.95;1.45;;;;;;;3.71;100.00;98865.91;4975668;28;20429;-82
2024/03/29 05:01:22;;;;;;;4.13;1.25;;;;;;;3.66;100.00;98864.06;4991384;28;20436;-82
2024/03/29 05:03:51;;;;;;;6.38;1.40;;;;;;;3.66;100.00;98880.19;4974114;28;20430;-82
2024/03/29 05:06:18;;;;;;;3.40;1.20;;;;;;;3.68;100.00;98878.00;4990969;28;20433;-82
2024/03/29 05:08:46;;;;;;;6.78;1.13;;;;;;;3.78;100.00;98871.75;4992079;28;20447;-82
2024/03/29 05:11:15;;;;;;;4.85;1.80;;;;;;;3.69;100.00;98881.53;4991620;28;20414;-82
2024/03/29 05:13:42;;;;;;;6.68;1.95;;;;;;;3.75;100.00;98886.56;4992803;28;20416;-82
2024/03/29 05:16:11;;;;;;;5.07;2.17;;;;;;;3.77;100.00;98896.25;4991770;28;20420;-82
2024/03/29 05:18:38;;;;;;;6.88;3.05;;;;;;;3.74;100.00;98906.50;4989341;28;20921;-82
2024/03/29 05:21:06;;;;;;;6.90;2.25;;;;;;;3.74;100.00;98901.13;4991640;28;20427;-82
2024/03/29 05:23:34;;;;;;;6.88;1.77;;;;;;;3.83;100.00;98895.97;4974547;28;20429;-82
2024/03/29 05:26:02;;;;;;;5.88;1.58;;;;;;;3.87;100.00;98902.38;4967274;28;20940;-82
2024/03/29 05:28:29;;;;;;;3.33;1.45;;;;;;;3.80;100.00;98891.13;4974487;28;20418;-82
2024/03/29 05:30:57;;;;;;;4.15;1.40;;;;;;;3.84;100.00;98900.25;4973925;28;20439;-82
2024/03/29 05:33:25;;;;;;;4.40;1.55;;;;;;;3.84;100.00;98908.34;4974265;28;20433;-82
2024/03/29 05:35:53;;;;;;;4.70;1.45;;;;;;;3.84;100.00;98900.25;4984032;28;20414;-82
2024/03/29 05:38:20;;;;;;;5.38;1.50;;;;;;;3.84;100.00;98900.25;4986962;28;20412;-82
2024/03/29 05:40:48;;;;;;;6.25;1.30;;;;;;;3.91;100.00;98891.88;4982839;28;20425;-82
2024/03/29 05:43:15;;;;;;;3.40;1.20;;;;;;;3.92;100.00;98901.53;4991331;28;20428;-82
2024/03/29 05:45:43;;;;;;;6.18;1.40;;;;;;;3.94;100.00;98903.97;4990736;28;20425;-82
2024/03/29 05:48:10;;;;;;;4.00;1.40;;;;;;;3.98;100.00;98894.25;4975125;28;20537;-82
2024/03/29 05:50:39;;;;;;;4.18;1.58;;;;;;;4.00;100.00;98908.22;4989912;28;20421;-82
2024/03/29 05:53:06;;;;;;;5.25;1.90;;;;;;;4.07;100.00;98920.31;4990870;28;20436;-82
2024/03/29 05:55:34;;;;;;;4.82;2.00;;;;;;;4.18;100.00;98915.63;4974713;28;20832;-82
2024/03/29 05:58:02;;;;;;;5.72;1.63;;;;;;;4.17;100.00;98929.38;4966636;28;21226;-82
2024/03/29 06:00:30;;;;;;;20.58;6.60;;;;;;;4.13;100.00;98933.72;4988008;28;20425;-81
2024/03/29 06:02:57;;;;;;;6.05;2.10;;;;;;;4.14;100.00;98929.94;4987284;28;20429;-83
2024/03/29 06:05:25;;;;;;;4.93;1.13;;;;;;;4.19;100.00;98927.22;4974498;28;20437;-82
2024/03/29 06:07:54;;;;;;;3.50;1.33;;;;;;;4.24;100.00;98919.09;4972939;28;21196;-82
2024/03/29 06:10:21;;;;;;;4.80;1.30;;;;;;;4.28;100.00;98930.09;4989355;28;21226;-82
2024/03/29 06:12:49;;;;;;;6.30;1.60;;;;;;;4.30;100.00;98927.94;4973983;28;20889;-82
2024/03/29 06:18:02;;;;;;;4.45;1.10;;;;;;;4.40;100.00;98935.94;4983692;28;20437;-82
2024/03/29 06:20:30;;;;;;;3.33;1.20;;;;;;;4.45;100.00;98925.13;4974143;28;20425;-83
2024/03/29 06:22:58;;;;;;;7.10;1.48;;;;;;;4.52;100.00;98927.50;4990762;28;20435;-81
2024/03/29 06:25:26;;;;;;;6.13;1.25;;;;;;;4.56;100.00;98932.03;4970363;28;20433;-82
2024/03/29 06:27:53;;;;;;;4.20;1.40;;;;;;;4.62;100.00;98937.38;4966512;28;20794;-82
2024/03/29 06:30:21;;;;;;;4.55;1.25;;;;;;;4.68;100.00;98931.66;4968976;28;20416;-82
2024/03/29 06:32:49;;;;;;;3.67;1.10;;;;;;;4.76;100.00;98941.00;4985241;28;20438;-83
2024/03/29 06:35:16;;;;;;;5.13;1.45;;;;;;;4.83;100.00;98949.56;4979075;28;20790;-83
2024/03/29 06:37:44;;;;;;;2.75;1.33;;;;;;;4.86;100.00;98951.72;4991333;28;20424;-83
2024/03/29 06:40:13;;;;;;;3.15;1.10;;;;;;;5.01;100.00;98960.72;4990536;28;20439;-82
2024/03/29 06:42:40;;;;;;;3.13;1.10;;;;;;;4.98;100.00;98962.09;4990499;28;20425;-83
2024/03/29 06:45:10;;;;;;;4.55;1.40;;;;;;;5.01;100.00;98958.81;4973784;28;21170;-83
2024/03/29 06:47:37;;;;;;;6.38;2.40;;;;;;;5.05;100.00;98969.84;4990177;28;20437;-82
2024/03/29 06:50:06;;;;;;;7.23;2.23;;;;;;;5.09;100.00;98960.09;4981135;28;20786;-82
2024/03/29 06:52:34;;;;;;;7.70;2.00;;;;;;;5.14;100.00;98967.31;4973480;28;20781;-82
2024/03/29 06:55:01;;;;;;;4.03;1.40;;;;;;;5.20;100.00;98972.38;4988499;28;20439;-82
2024/03/29 06:57:31;;;;;;;3.10;1.40;;;;;;;5.27;100.00;98961.25;4996314;28;20412;-83
2024/03/29 06:59:59;;;;;;;4.55;1.50;;;;;;;5.30;100.00;98965.28;4983435;28;20428;-83
2024/03/29 07:02:26;;;;;;;5.45;1.35;;;;;;;5.42;100.00;98952.97;4988686;28;20424;-83
2024/03/29 07:04:53;;;;;;;2.78;1.10;;;;;;;5.42;100.00;98966.47;4983866;28;20421;-83
2024/03/29 07:07:21;;;;;;;4.13;1.37;;;;;;;5.50;100.00;98959.66;4979826;28;20513;-83
2024/03/29 07:09:48;;;;;;;3.78;1.23;;;;;;;5.57;100.00;98962.78;4989985;28;21160;-83
2024/03/29 07:12:16;;;;;;;3.83;1.00;;;;;;;5.62;100.00;98964.63;4967922;28;20438;-83
2024/03/29 07:14:45;;;;;;;5.33;1.03;;;;;;;5.68;100.00;98962.69;4971841;28;20757;-83
2024/03/29 07:17:12;;;;;;;4.55;1.00;;;;;;;5.79;100.00;98956.06;4987449;28;20425;-83
2024/03/29 07:19:40;;;;;;;3.92;1.10;;;;;;;5.87;100.00;98957.28;4989088;28;21471;-83
2024/03/29 07:22:07;;;;;;;2.75;1.05;;;;;;;5.91;100.00;98961.00;4989608;28;20432;-83
2024/03/29 07:24:35;;;;;;;3.25;1.10;;;;;;;5.93;100.00;98965.03;4990824;28;20422;-83
2024/03/29 07:27:02;;;;;;;4.30;1.20;;;;;;;5.98;100.00;98966.91;4993075;28;20441;-83
2024/03/29 07:29:33;;;;;;;3.45;1.00;;;;;;;6.02;100.00;98959.81;4971347;28;20446;-83
2024/03/29 07:32:02;;;;;;;3.33;1.20;;;;;;;6.17;100.00;98966.88;4975249;28;20486;-83
2024/03/29 07:34:30;;;;;;;4.45;1.23;;;;;;;6.17;100.00;98964.19;4989920;28;20410;-82
2024/03/29 07:36:57;;;;;;;4.15;1.13;;;;;;;6.19;100.00;98982.81;4981122;28;20439;-83
2024/03/29 07:39:25;;;;;;;3.00;0.98;;;;;;;6.41;100.00;98990.34;4992307;28;20413;-83
2024/03/29 07:41:52;;;;;;;6.50;1.20;;;;;;;6.43;100.00;98991.63;4976243;28;20451;-83
2024/03/29 07:44:20;;;;;;;6.50;1.40;;;;;;;6.38;100.00;98990.91;4993039;28;20424;-83
2024/03/29 07:46:47;;;;;;;4.05;1.58;;;;;;;6.42;100.00;98991.91;4993318;28;20432;-82
2024/03/29 07:49:21;;;;;;;4.05;1.13;;;;;;;6.46;100.00;98993.75;4987886;28;20442;-82
2024/03/29 07:51:48;;;;;;;3.38;1.20;;;;;;;6.48;100.00;98985.34;4993023;28;20893;-83
2024/03/29 07:54:16;;;;;;;5.00;1.10;;;;;;;6.56;100.00;99000.06;4983882;28;20786;-82
2024/03/29 07:56:43;;;;;;;3.30;1.00;;;;;;;6.66;100.00;99004.50;4984989;28;20432;-82
2024/03/29 07:59:11;;;;;;;6.13;1.70;;;;;;;6.72;100.00;99006.06;4991016;28;20437;-81
2024/03/29 08:01:41;;;;;;;4.57;1.20;;;;;;;6.80;100.00;99006.19;4989578;28;20433;-82
2024/03/29 08:04:08;;;;;;;3.50;1.10;;;;;;;6.91;100.00;99014.94;4975994;28;20777;-83
2024/03/29 08:06:37;;;;;;;3.22;1.10;;;;;;;6.89;100.00;99005.50;4987292;28;20436;-83
2024/03/29 08:09:04;;;;;;;3.83;1.30;;;;;;;7.02;100.00;99004.75;4991485;28;20416;-83
2024/03/29 08:11:32;;;;;;;4.68;1.40;;;;;;;7.05;100.00;99006.06;4992549;28;20417;-83
2024/03/29 08:13:59;;;;;;;5.60;1.60;;;;;;;7.17;100.00;99006.38;4991808;28;20516;-82
2024/03/29 08:16:27;;;;;;;5.63;1.63;;;;;;;7.21;100.00;99023.63;4992246;28;20428;-82
2024/03/29 08:18:54;;;;;;;6.88;1.80;;;;;;;7.40;100.00;99018.13;4990543;28;20411;-84
2024/03/29 08:21:22;;;;;;;6.03;1.90;;;;;;;7.45;100.00;99018.03;4990865;28;20764;-82
2024/03/29 08:23:51;;;;;;;5.85;1.52;;;;;;;7.53;100.00;99015.75;4985350;28;20419;-81
2024/03/29 08:26:18;;;;;;;5.20;1.50;;;;;;;7.62;100.00;99025.56;4991713;28;20417;-82
2024/03/29 08:28:46;;;;;;;4.28;1.40;;;;;;;7.65;100.00;99030.38;4971306;28;20830;-81
2024/03/29 08:31:14;;;;;;;2.80;1.17;;;;;;;7.80;100.00;99031.97;4987640;28;20436;-81
2024/03/29 08:33:43;;;;;;;2.80;0.93;;;;;;;7.65;100.00;99037.69;4969909;28;20436;-81
2024/03/29 08:36:11;;;;;;;4.43;1.25;;;;;;;7.65;100.00;99038.50;4986404;28;20421;-81
2024/03/29 08:38:42;;;;;;;3.47;1.10;;;;;;;7.52;100.00;99052.81;4985417;28;20439;-81
2024/03/29 08:41:11;;;;;;;4.70;1.10;;;;;;;7.35;100.00;99039.88;4989281;28;20429;-81
2024/03/29 08:43:38;;;;;;;4.43;1.10;;;;;;;7.42;100.00;99032.16;4989059;28;20448;-81
2024/03/29 08:46:09;;;;;;;4.55;0.90;;;;;;;7.30;100.00;99019.09;4980729;28;20445;-81
2024/03/29 08:48:39;;;;;;;4.65;1.20;;;;;;;7.28;100.00;99020.53;4968506;28;21228;-82
2024/03/29 08:51:07;;;;;;;3.05;1.10;;;;;;;7.31;100.00;99003.69;4985598;28;20437;-80
2024/03/29 08:53:35;;;;;;;3.05;0.80;;;;;;;7.15;100.00;98989.63;4962359;28;20892;-81
2024/03/29 08:56:02;;;;;;;3.13;1.00;;;;;;;7.25;100.00;99005.69;4975888;28;20442;-80
2024/03/29 08:58:31;;;;;;;2.97;0.95;;;;;;;7.17;100.00;99014.50;4981822;28;20425;-80
2024/03/29 09:01:00;;;;;;;5.57;1.00;;;;;;;7.13;100.00;99014.28;4979932;28;20449;-81
2024/03/29 09:03:28;;;;;;;2.20;0.80;;;;;;;7.06;100.00;99005.75;4989143;28;20432;-81
2024/03/29 09:05:55;;;;;;;5.45;1.10;;;;;;;7.22;100.00;99005.47;4970604;28;20988;-81
2024/03/29 09:08:23;;;;;;;4.00;1.10;;;;;;;7.11;100.00;99005.66;4983730;28;20459;-81
2024/03/29 09:10:50;;;;;;;2.58;0.80;;;;;;;7.09;100.00;98999.75;4985706;28;20424;-81
2024/03/29 09:13:18;;;;;;;4.57;1.03;;;;;;;7.24;100.00;98990.53;4987122;28;20451;-81
2024/03/29 09:15:49;;;;;;;3.75;1.00;;;;;;;7.14;100.00;98982.63;4990044;28;20424;-81
2024/03/29 09:18:23;;;;;;;4.28;1.20;;;;;;;7.15;100.00;98989.63;4972846;28;20432;-82
2024/03/29 09:20:58;;;;;;;3.83;1.35;;;;;;;7.23;100.00;98996.25;4989481;28;20424;-83
2024/03/29 09:23:27;;;;;;;2.42;1.15;;;;;;;7.26;100.00;98984.84;4983969;28;20435;-86
2024/03/29 09:25:55;;;;;;;5.53;1.60;;;;;;;7.24;100.00;98976.22;4986587;28;20429;-80
2024/03/29 09:28:23;;;;;;;5.82;1.60;;;;;;;7.26;100.00;98977.50;4997587;28;20440;-80
2024/03/29 09:30:58;;;;;;;3.97;1.30;;;;;;;7.27;100.00;98970.22;4966726;28;20456;-80
2024/03/29 09:33:26;;;;;;;3.75;1.10;;;;;;;7.21;100.00;98957.88;4980538;28;20420;-80
2024/03/29 09:35:56;;;;;;;2.10;0.80;;;;;;;7.26;100.00;98957.78;4985055;28;20440;-80
2024/03/29 09:38:24;;;;;;;3.85;1.05;;;;;;;7.22;100.00;98954.88;4980001;28;20909;-80
2024/03/29 09:41:01;;;;;;;5.63;1.30;;;;;;;7.20;100.00;98948.97;4983046;28;20893;-80
2024/03/29 09:43:30;;;;;;;3.10;1.00;;;;;;;7.21;100.00;98952.44;4979283;28;21294;-80
2024/03/29 09:46:00;;;;;;;5.53;1.40;;;;;;;7.17;100.00;98960.38;5019526;28;20780;-85
2024/03/29 09:48:32;;;;;;;5.40;1.80;;;;;;;7.10;100.00;98960.78;4989231;28;20475;-81
2024/03/29 09:51:00;;;;;;;5.35;2.20;;;;;;;7.10;100.00;98958.06;4983114;28;20416;-80
2024/03/29 09:53:28;;;;;;;8.93;2.97;;;;;;;7.14;100.00;98932.03;4984189;28;20423;-80
2024/03/29 09:55:55;;;;;;;8.90;3.00;;;;;;;7.10;100.00;98941.84;4972787;28;20428;-80
2024/03/29 09:58:23;;;;;;;8.03;2.80;;;;;;;7.09;100.00;98940.22;4972341;28;20440;-82
2024/03/29 10:00:50;;;;;;;7.03;2.30;;;;;;;7.08;100.00;98937.81;4973116;28;20432;-81
2024/03/29 10:03:19;;;;;;;6.20;2.00;;;;;;;7.08;100.00;98940.53;4989215;28;20860;-80
2024/03/29 10:05:48;;;;;;;2.75;1.30;;;;;;;7.03;100.00;98937.91;5005568;28;20900;-78
2024/03/29 10:08:16;;;;;;;4.18;1.73;;;;;;;7.10;100.00;98938.34;4972318;28;20432;-83
2024/03/29 10:10:44;;;;;;;5.57;1.40;;;;;;;7.02;100.00;98922.81;4973107;28;20432;-79
2024/03/29 10:13:11;;;;;;;3.08;1.52;;;;;;;7.07;100.00;98925.41;4988894;28;20424;-81
2024/03/29 10:15:43;;;;;;;4.70;1.30;;;;;;;7.07;100.00;98928.09;4979671;28;20777;-81
2024/03/29 10:18:10;;;;;;;4.60;1.30;;;;;;;7.13;100.00;98921.50;5005752;28;20428;-79
2024/03/29 10:20:39;;;;;;;5.00;1.60;;;;;;;7.16;100.00;98891.13;4986856;28;21042;-80
2024/03/29 10:23:07;;;;;;;4.47;1.50;;;;;;;7.19;100.00;98898.66;4970838;28;20899;-81
2024/03/29 10:25:35;;;;;;;4.50;1.30;;;;;;;7.29;100.00;98909.28;4970491;28;20912;-81
2024/03/29 10:28:02;;;;;;;3.83;1.10;;;;;;;7.41;100.00;98892.53;4987337;28;20431;-81
2024/03/29 10:30:30;;;;;;;2.60;1.25;;;;;;;7.36;100.00;98908.88;4982187;28;20440;-81
2024/03/29 10:32:58;;;;;;;4.32;1.33;;;;;;;7.38;100.00;98911.28;4981376;28;20453;-81
2024/03/29 10:35:26;;;;;;;3.25;1.10;;;;;;;7.34;100.00;98923.81;5018583;28;20901;-81
2024/03/29 10:37:55;;;;;;;3.78;1.40;;;;;;;7.43;100.00;98908.44;4964831;28;20439;-81
2024/03/29 10:40:24;;;;;;;4.75;1.40;;;;;;;7.44;100.00;98915.47;4987696;28;20429;-80
2024/03/29 10:42:53;;;;;;;2.70;1.20;;;;;;;7.49;100.00;98913.47;4983900;28;20424;-80
2024/03/29 10:45:23;;;;;;;6.63;2.00;;;;;;;7.47;100.00;98912.97;4984743;28;20871;-80
2024/03/29 10:47:53;;;;;;;3.47;1.20;;;;;;;7.34;100.00;98907.56;5004336;28;20424;-84
2024/03/29 10:50:23;;;;;;;4.47;1.40;;;;;;;7.38;100.00;98903.97;4987053;28;20417;-80
2024/03/29 10:52:51;;;;;;;4.25;1.27;;;;;;;7.40;100.00;98901.75;4970396;28;20429;-80
2024/03/29 10:55:21;;;;;;;6.13;1.40;;;;;;;7.39;100.00;98910.97;4988449;28;20429;-80
2024/03/29 10:57:54;;;;;;;5.40;1.33;;;;;;;7.39;100.00;98907.44;4989436;28;20423;-80
2024/03/29 11:00:23;;;;;;;5.60;1.30;;;;;;;7.41;100.00;98902.56;4989070;28;20448;-80
2024/03/29 11:02:58;;;;;;;4.60;1.40;;;;;;;7.39;100.00;98918.28;4974195;28;20432;-79
2024/03/29 11:05:29;;;;;;;3.92;1.40;;;;;;;7.42;100.00;98915.00;5007786;28;20448;-80
2024/03/29 11:07:57;;;;;;;5.43;1.40;;;;;;;7.61;100.00;98915.66;4968098;28;20463;-80
2024/03/29 11:10:31;;;;;;;4.30;1.40;;;;;;;7.75;100.00;98901.31;4990299;28;20789;-80
2024/03/29 11:13:03;;;;;;;5.40;1.60;;;;;;;7.91;100.00;98899.03;5007292;28;20455;-80
2024/03/29 11:15:32;;;;;;;6.40;1.90;;;;;;;7.92;100.00;98900.66;4990101;28;20433;-80
2024/03/29 11:18:01;;;;;;;5.43;1.60;;;;;;;8.07;100.00;98886.75;4974878;28;20456;-84
2024/03/29 11:20:34;;;;;;;7.10;2.13;;;;;;;8.16;100.00;98887.63;4990002;28;20480;-80
2024/03/29 11:23:06;;;;;;;5.23;2.17;;;;;;;8.20;100.00;98892.41;4972596;28;20809;-80
2024/03/29 11:25:45;;;;;;;4.95;1.67;;;;;;;8.18;100.00;98890.03;4988237;28;20937;-80
2024/03/29 11:28:15;;;;;;;11.75;3.50;;;;;;;8.26;100.00;98888.47;4989279;28;20445;-83
2024/03/29 11:30:44;;;;;;;11.05;2.78;;;;;;;8.24;100.00;98893.41;4972791;28;20433;-80
2024/03/29 11:33:29;;;;;;;14.73;4.38;;;;;;;8.25;100.00;98895.81;4985068;28;20908;-81
2024/03/29 11:35:57;;;;;;;8.15;2.08;;;;;;;8.29;100.00;98902.22;4988941;28;20428;-81
2024/03/29 11:38:31;;;;;;;10.27;3.08;;;;;;;8.19;100.00;98902.47;4973669;28;20442;-81
2024/03/29 11:41:05;;;;;;;8.95;2.20;;;;;;;8.44;100.00;98906.47;4987760;28;20433;-81
2024/03/29 11:43:33;;;;;;;6.05;2.10;;;;;;;8.74;100.00;98908.72;4985402;28;20427;-81
2024/03/29 11:46:02;;;;;;;5.25;1.80;;;;;;;8.91;100.00;98902.56;4968622;28;20427;-81
2024/03/29 11:48:32;;;;;;;5.45;1.60;;;;;;;8.83;100.00;98912.28;4989465;28;20931;-81
2024/03/29 11:51:00;;;;;;;3.80;1.50;;;;;;;8.89;100.00;98911.03;4984990;28;20428;-81
2024/03/29 11:53:30;;;;;;;5.13;1.60;;;;;;;9.04;100.00;98909.03;4982058;28;20424;-81
2024/03/29 11:55:59;;;;;;;4.20;1.60;;;;;;;9.33;100.00;98914.72;4966538;28;20449;-83
2024/03/29 11:58:29;;;;;;;4.38;1.48;;;;;;;9.45;100.00;98922.28;5005334;28;20864;-83
2024/03/29 12:00:59;;;;;;;6.20;1.85;;;;;;;9.42;100.00;98922.09;4990421;28;20417;-83
2024/03/29 12:03:34;;;;;;;6.88;1.90;;;;;;;9.67;100.00;98920.56;4988207;28;20416;-82
2024/03/29 12:06:20;;;;;;;7.18;2.05;;;;;;;9.56;100.00;98905.69;4994324;28;20436;-81
2024/03/29 12:08:57;;;;;;;4.75;1.70;;;;;;;9.69;100.00;98900.13;4996250;28;20455;-81
2024/03/29 12:11:47;;;;;;;5.95;1.55;;;;;;;9.53;100.00;98902.47;4999091;28;20437;-81
2024/03/29 12:14:17;;;;;;;4.45;1.35;;;;;;;9.51;100.00;98902.00;4986216;28;20430;-81
2024/03/29 12:16:46;;;;;;;2.30;1.25;;;;;;;9.66;100.00;98902.66;5005476;28;20439;-81
2024/03/29 12:19:27;;;;;;;6.18;1.40;;;;;;;9.53;100.00;98907.91;4975644;28;20435;-84
2024/03/29 12:21:56;;;;;;;5.35;1.25;;;;;;;9.57;100.00;98902.66;4991637;28;20425;-82
2024/03/29 12:24:27;;;;;;;4.40;1.23;;;;;;;9.44;100.00;98892.72;4972174;28;20413;-81
2024/03/29 12:26:58;;;;;;;3.40;1.35;;;;;;;9.44;100.00;98912.50;5005805;28;20432;-82
2024/03/29 12:29:48;;;;;;;5.20;1.70;;;;;;;9.49;100.00;98911.59;4970872;28;20430;-82
2024/03/29 12:32:29;;;;;;;3.33;1.13;;;;;;;9.46;100.00;98912.19;4987689;28;20451;-81
2024/03/29 12:35:12;;;;;;;4.35;1.50;;;;;;;9.36;100.00;98894.28;4985902;28;20762;-81
2024/03/29 12:37:52;;;;;;;3.53;1.10;;;;;;;9.38;100.00;98897.50;4964730;28;21008;-81
2024/03/29 12:40:22;;;;;;;3.60;1.37;;;;;;;9.42;100.00;98916.66;4968616;28;20860;-81
2024/03/29 12:42:58;;;;;;;6.53;1.65;;;;;;;9.49;100.00;98909.66;4970937;28;20436;-81
2024/03/29 12:45:44;;;;;;;3.97;1.40;;;;;;;9.47;100.00;98892.91;4968698;28;20429;-81
2024/03/29 12:48:29;;;;;;;3.40;1.20;;;;;;;9.51;100.00;98904.72;5004615;28;20427;-81
2024/03/29 12:51:23;;;;;;;5.32;1.30;;;;;;;9.72;100.00;98914.97;5020815;28;20460;-81
2024/03/29 12:53:52;;;;;;;2.85;1.20;;;;;;;9.56;100.00;98922.78;4979374;28;20847;-82
2024/03/29 12:56:22;;;;;;;4.00;1.30;;;;;;;9.63;100.00;98944.84;4974355;28;20421;-81
2024/03/29 12:58:53;;;;;;;2.92;1.45;;;;;;;9.61;100.00;98929.97;4988447;28;20413;-82
2024/03/29 13:01:23;;;;;;;3.10;1.20;;;;;;;9.99;100.00;98918.53;4989577;28;20433;-82
2024/03/29 13:03:52;;;;;;;4.07;1.58;;;;;;;10.17;100.00;98933.69;4970566;28;20432;-82
2024/03/29 13:06:20;;;;;;;2.92;1.60;;;;;;;10.50;100.00;98933.22;4973239;28;20761;-82
2024/03/29 13:08:49;;;;;;;2.65;1.25;;;;;;;10.51;100.00;98917.72;4972634;28;20438;-84
2024/03/29 13:11:18;;;;;;;4.43;1.55;;;;;;;10.83;100.00;98910.13;4973973;28;21007;-82
2024/03/29 13:13:47;;;;;;;4.22;1.92;;;;;;;11.01;100.00;98919.81;4989833;28;20419;-81
2024/03/29 13:16:17;;;;;;;3.38;1.33;;;;;;;11.00;100.00;98933.75;5021974;28;20425;-82
2024/03/29 13:18:49;;;;;;;1.88;1.00;;;;;;;10.91;100.00;98933.81;4972104;28;20451;-82
2024/03/29 13:21:17;;;;;;;2.88;1.10;;;;;;;11.08;100.00;98943.03;5000699;28;20424;-82
2024/03/29 13:23:44;;;;;;;2.40;1.00;;;;;;;10.94;100.00;98948.66;4985922;28;21078;-82
2024/03/29 13:26:12;;;;;;;2.47;1.08;;;;;;;10.76;100.00;98946.00;4985439;28;20424;-81
2024/03/29 13:28:40;;;;;;;2.72;1.30;;;;;;;10.64;100.00;98949.38;4989120;28;20432;-81
2024/03/29 13:31:07;;;;;;;3.50;1.35;;;;;;;10.45;100.00;98948.91;4983941;28;21228;-83